WHISKEYTOWN DAM (USBR) (WHI)

Elevation: 1210' · SACRAMENTO R basin · Operator: US Bureau of Reclamation

Provisional data, subject to change.
Query executed Wednesday at 12:15:30   clock

Select a sensor type for a plot of data.
Note: Reservoir Flows are daily averages.

Earlier

Date RES ELE    STORAGE    RES CHG    OUTFLOW    INFLOW    EVAP    RIV REL    PPT INC    RAIN    SPILL    DIS PWR   
 FEET   AF   AF   CFS   CFS   CFS   CFS   INCHES   INCHES   CFS   CFS  
04/05/2016 1207.55 233297 284 215 371 13 200 0.00 59.45 0 15
04/06/2016 1207.68 233707 -- 227 454 20 200 0.00 59.45 0 27
04/07/2016 1207.77 233991 284 217 380 20 199 0.00 59.45 0 18
04/08/2016 1207.86 234275 284 213 370 14 199 0.00 59.45 0 14
04/09/2016 1207.46 233013 -1262 1093 474 17 200 0.00 59.45 0 893
04/10/2016 1207.54 233266 253 217 345 0 199 0.22 59.67 0 18
04/11/2016 1207.01 231594 -1672 1324 481 0 200 0.07 59.74 0 1124
04/12/2016 1207.16 232067 473 218 460 4 200 0.45 60.19 0 18
04/13/2016 1207.44 232950 883 213 658 0 199 0.04 60.23 0 14
04/14/2016 1207.51 233171 221 214 327 2 200 0.12 60.35 0 14
04/15/2016 1207.58 233392 221 213 328 4 199 0.02 60.37 0 14
04/16/2016 1207.64 233581 189 214 320 11 200 0.00 60.37 0 14
04/17/2016 1207.69 233739 158 213 307 14 199 0.00 60.37 0 14
04/18/2016 1207.76 233960 221 214 343 18 200 0.00 60.37 0 14
04/19/2016 1207.80 234086 126 193 257 0 179 0.00 60.37 0 14
04/20/2016 1207.87 234307 221 213 340 16 199 0.00 60.37 0 14
04/21/2016 1207.91 234433 126 213 294 17 199 0.00 60.37 0 14
04/22/2016 1208.27 235575 1142 213 806 17 199 0.00 60.37 0 14
04/23/2016 1208.44 236115 540 213 485 0 199 0.39 60.76 0 14
04/24/2016 1208.47 236211 96 213 268 7 199 0.00 60.76 0 14
04/25/2016 1208.50 236306 95 213 273 12 199 0.00 60.76 0 14
04/26/2016 1208.53 236401 95 213 277 16 199 0.00 60.76 0 14
04/27/2016 1208.63 236719 318 213 387 14 199 0.00 60.76 0 14
04/28/2016 1208.68 236878 -- 212 295 3 198 0.21 60.97 0 14
04/29/2016 1208.68 236878 0 212 227 15 198 0.00 60.97 0 14
04/30/2016 1208.68 236878 0 212 230 18 198 0.00 60.97 0 14
05/01/2016 1208.69 236910 32 213 242 13 199 0.00 60.97 0 14
05/02/2016 1208.72 237005 95 213 284 23 199 0.00 60.97 0 14
05/03/2016 1208.74 237069 64 212 265 21 198 0.00 60.97 0 14
05/04/2016 -- -- -- -- -- -- -- -- -- -- --

Later | Latest

Warning! This data is preliminary and subject to revision.

Show WHI Map | Plot WHI Data | 1 Month WHI Data | Real-Time WHI Data | WHI Info